This is the latest recevied weather packets stored in our database for station/object vk4vs. If no packets are shown the sender has not sent any weather packets the latest 10 day(s).
| Time | Temp. | Humidity | Pressure | Rain* | Wind** | Luminosity | Snow |
|---|---|---|---|---|---|---|---|
| 1777640404 | 14.44° C | 97% | 1022.9 hPa | 0 mm | - | - | - |
| 1777638604 | 14.44° C | 97% | 1023.4 hPa | 0 mm | - | - | - |
| 1777636809 | 14.44° C | 97% | 1023.3 hPa | 0 mm | - | - | - |
| 1777635004 | 13.89° C | 96% | 1023.2 hPa | 0 mm | - | - | - |
| 1777633203 | 14.44° C | 94% | 1023.1 hPa | 0 mm | - | - | - |
| 1777631404 | 13.89° C | 93% | 1022.8 hPa | 0 mm | - | - | - |
| 1777629603 | 13.89° C | 92% | 1022.9 hPa | 0 mm | - | - | - |
| 1777627804 | 13.89° C | 92% | 1022.9 hPa | 0 mm | - | - | - |
| 1777626004 | 13.89° C | 90% | 1023 hPa | 0 mm | - | - | - |
| 1777624204 | 13.89° C | 90% | 1022.9 hPa | 0 mm | - | - | - |
| 1777622404 | 14.44° C | 88% | 1022.8 hPa | 0 mm | - | - | - |
| 1777620604 | 14.44° C | 87% | 1022.8 hPa | 0 mm | - | - | - |
| 1777618804 | 14.44° C | 87% | 1022.8 hPa | 0 mm | - | - | - |
| 1777617003 | 16.11° C | 81% | 1022.9 hPa | 0 mm | - | - | - |
| 1777615204 | 17.22° C | 78% | 1022.6 hPa | 0 mm | - | - | - |
| 1777613404 | 16.67° C | 79% | 1022.6 hPa | 0 mm | - | - | - |
| 1777611604 | 16.67° C | 80% | 1022.8 hPa | 0 mm | - | - | - |
| 1777609803 | 17.78° C | 77% | 1022.6 hPa | 0 mm | - | - | - |
| 1777608004 | 16.67° C | 78% | 1022.9 hPa | 0 mm | - | - | - |
| 1777606204 | 17.78° C | 73% | 1023.3 hPa | 0 mm | - | - | - |
| 1777604404 | 18.33° C | 69% | 1023.5 hPa | 0 mm | - | - | - |
| 1777602604 | 17.78° C | 71% | 1023.8 hPa | 0 mm | - | - | - |
| 1777600804 | 17.78° C | 72% | 1024.3 hPa | 0 mm | - | - | - |
| 1777599004 | 17.22° C | 75% | 1025 hPa | 0 mm | - | - | - |
| 1777597204 | 15.56° C | 81% | 1025.3 hPa | 0 mm | - | - | - |
* Rain latest hour (hover to see other rain measurements)
** Current wind speed in m/s (hover to see current wind gust speed)